createdAt,value
2022-09-28T00:01:20.646Z,19.35
2022-09-28T00:03:49.873Z,13.95
2022-09-28T00:06:24.376Z,14.25
2022-09-28T00:08:52.314Z,13.50
2022-09-28T00:11:21.220Z,10.60
2022-09-28T00:13:51.754Z,11.20
2022-09-28T00:16:22.080Z,11.60
2022-09-28T00:18:51.155Z,16.10
2022-09-28T00:21:24.305Z,15.07
2022-09-28T00:24:13.134Z,14.43
2022-09-28T00:26:43.949Z,15.45
2022-09-28T00:29:23.423Z,17.07
2022-09-28T00:31:59.989Z,11.02
2022-09-28T00:34:31.976Z,13.05
2022-09-28T00:37:01.017Z,10.63
2022-09-28T00:39:31.568Z,8.65
2022-09-28T00:41:59.744Z,11.00
2022-09-28T00:44:30.222Z,9.00
2022-09-28T00:47:27.017Z,14.25
2022-09-28T00:49:57.395Z,12.05
2022-09-28T00:52:41.046Z,17.23
2022-09-28T00:55:13.321Z,12.80
2022-09-28T00:57:46.111Z,11.70
2022-09-28T01:00:13.980Z,11.82
2022-09-28T01:02:42.309Z,11.40
2022-09-28T01:05:11.436Z,13.52
2022-09-28T01:07:39.637Z,15.70
2022-09-28T01:10:08.058Z,10.07
2022-09-28T01:12:35.614Z,10.55
2022-09-28T01:15:05.575Z,15.27
2022-09-28T01:17:36.765Z,12.65
2022-09-28T01:20:19.754Z,11.30
2022-09-28T01:23:19.342Z,16.63
2022-09-28T01:26:16.072Z,12.05
2022-09-28T01:28:46.949Z,9.25
2022-09-28T01:31:15.960Z,8.85
2022-09-28T01:33:55.252Z,8.90
2022-09-28T01:36:28.128Z,10.80
2022-09-28T01:39:24.526Z,13.48
2022-09-28T01:41:56.742Z,14.88
2022-09-28T01:44:28.949Z,15.80
2022-09-28T01:47:03.585Z,11.60
2022-09-28T01:49:42.323Z,27.65
2022-09-28T01:52:18.446Z,8.07
2022-09-28T01:55:02.688Z,9.40
2022-09-28T01:57:44.145Z,13.95
2022-09-28T02:00:15.092Z,15.23
2022-09-28T02:02:54.605Z,15.32
2022-09-28T02:05:37.646Z,64.53
2022-09-28T02:08:20.060Z,7.35
2022-09-28T02:10:57.550Z,7.35
2022-09-28T02:13:32.862Z,10.70
2022-09-28T02:16:15.137Z,14.57
2022-09-28T02:18:44.946Z,12.18
2022-09-28T02:21:32.414Z,11.77
2022-09-28T02:24:06.932Z,10.10
2022-09-28T02:26:44.686Z,12.23
2022-09-28T02:29:13.042Z,11.20
2022-09-28T02:31:40.645Z,12.57
2022-09-28T02:34:09.085Z,16.13
2022-09-28T02:36:36.969Z,13.75
2022-09-28T02:39:04.729Z,14.48
2022-09-28T02:41:53.814Z,10.23
2022-09-28T02:44:46.277Z,15.60
2022-09-28T02:47:51.978Z,14.38
2022-09-28T02:50:42.056Z,14.02
2022-09-28T02:53:09.521Z,17.27
2022-09-28T02:55:53.101Z,16.10
2022-09-28T02:58:54.411Z,15.27
2022-09-28T03:01:38.509Z,16.55
2022-09-28T03:04:18.511Z,15.30
2022-09-28T03:06:54.713Z,11.95
2022-09-28T03:09:28.489Z,15.00
2022-09-28T03:12:00.996Z,13.40
2022-09-28T03:14:28.533Z,20.00
2022-09-28T03:16:58.077Z,16.58
2022-09-28T03:19:31.580Z,15.32
2022-09-28T03:22:01.758Z,15.27
2022-09-28T03:24:29.432Z,16.52
2022-09-28T03:26:58.422Z,12.85
2022-09-28T03:29:26.631Z,16.27
2022-09-28T03:32:00.094Z,9.63
2022-09-28T03:34:27.674Z,11.65
2022-09-28T03:36:55.862Z,9.55
2022-09-28T03:39:23.419Z,9.52
2022-09-28T03:41:50.957Z,12.75
2022-09-28T03:44:20.917Z,15.73
2022-09-28T03:46:49.116Z,12.27
2022-09-28T03:49:16.845Z,18.38
2022-09-28T03:51:44.481Z,11.48
2022-09-28T03:54:13.001Z,10.75
2022-09-28T03:56:41.244Z,12.88
2022-09-28T03:59:08.836Z,12.77
2022-09-28T04:01:37.711Z,10.68
2022-09-28T04:04:05.631Z,9.88
2022-09-28T04:06:33.281Z,10.02
2022-09-28T04:09:00.894Z,9.90
2022-09-28T04:11:42.844Z,8.93
2022-09-28T04:14:16.978Z,9.85
2022-09-28T04:16:44.552Z,14.00
2022-09-28T04:19:15.879Z,13.60
2022-09-28T04:22:02.391Z,40.50
2022-09-28T04:24:30.049Z,33.88
2022-09-28T04:27:17.525Z,41.70
2022-09-28T04:29:45.208Z,16.05
2022-09-28T04:32:14.655Z,23.90
2022-09-28T04:34:44.331Z,14.90
2022-09-28T04:37:12.648Z,9.32
2022-09-28T04:39:43.924Z,15.27
2022-09-28T04:42:14.365Z,15.77
2022-09-28T04:44:41.858Z,11.45
2022-09-28T04:47:10.434Z,15.15
2022-09-28T04:49:56.554Z,18.67
2022-09-28T04:52:35.613Z,11.32
2022-09-28T04:55:03.493Z,38.47
2022-09-28T04:57:31.198Z,26.08
2022-09-28T04:59:59.529Z,12.93
2022-09-28T05:02:27.835Z,17.48
2022-09-28T05:05:15.753Z,15.10
2022-09-28T05:08:05.482Z,11.05
2022-09-28T05:10:33.226Z,14.02
2022-09-28T05:13:02.011Z,16.17
2022-09-28T05:15:31.032Z,14.27
2022-09-28T05:17:58.795Z,18.02
2022-09-28T05:20:41.775Z,13.85
2022-09-28T05:23:13.517Z,80.40
2022-09-28T05:25:45.310Z,14.73
2022-09-28T05:28:29.019Z,16.15
2022-09-28T05:31:15.206Z,34.95
2022-09-28T05:34:09.069Z,37.63
2022-09-28T05:36:38.743Z,37.78
2022-09-28T05:39:06.898Z,33.17
2022-09-28T05:41:35.729Z,36.67
2022-09-28T05:44:03.261Z,34.58
2022-09-28T05:46:31.332Z,76.13
2022-09-28T05:49:01.288Z,53.00
2022-09-28T05:51:29.004Z,81.80
2022-09-28T05:54:00.651Z,74.38
2022-09-28T05:56:31.738Z,92.60
2022-09-28T05:58:59.334Z,82.70
2022-09-28T06:01:29.925Z,89.53
2022-09-28T06:03:59.723Z,92.85
2022-09-28T06:06:27.293Z,116.00
2022-09-28T06:08:54.909Z,109.25
2022-09-28T06:11:42.937Z,100.70
2022-09-28T06:14:30.049Z,126.35
2022-09-28T06:16:57.650Z,167.55
2022-09-28T06:19:25.212Z,133.15
2022-09-28T06:22:17.413Z,139.82
2022-09-28T06:24:52.380Z,130.25
2022-09-28T06:27:19.934Z,83.10
2022-09-28T06:29:47.414Z,71.82
2022-09-28T06:32:14.981Z,89.05
2022-09-28T06:34:44.498Z,85.38
2022-09-28T06:37:12.349Z,79.38
2022-09-28T06:39:39.833Z,66.53
2022-09-28T06:42:07.764Z,68.10
2022-09-28T06:44:54.133Z,88.45
2022-09-28T06:47:41.953Z,145.77
2022-09-28T06:50:17.581Z,140.00
2022-09-28T06:53:09.615Z,130.05
2022-09-28T06:55:50.113Z,69.43
2022-09-28T06:58:20.093Z,76.10
2022-09-28T07:00:50.131Z,59.08
2022-09-28T07:03:20.112Z,51.72
2022-09-28T07:06:26.812Z,50.90
2022-09-28T07:09:26.418Z,48.83
2022-09-28T07:12:13.224Z,39.38
2022-09-28T07:14:56.263Z,39.58
2022-09-28T07:17:25.131Z,35.83
2022-09-28T07:19:55.831Z,31.52
2022-09-28T07:22:39.803Z,22.52
2022-09-28T07:25:09.711Z,23.27
2022-09-28T07:27:48.402Z,31.42
2022-09-28T07:30:40.122Z,33.75
2022-09-28T07:33:17.212Z,19.85
2022-09-28T07:35:55.551Z,18.65
2022-09-28T07:38:30.182Z,22.63
2022-09-28T07:41:14.015Z,14.82
2022-09-28T07:43:48.458Z,16.92
2022-09-28T07:46:16.903Z,18.25
2022-09-28T07:48:53.717Z,40.80
2022-09-28T07:51:44.245Z,62.90
2022-09-28T07:57:15.246Z,18.45
2022-09-28T07:59:54.501Z,26.63
2022-09-28T08:02:41.004Z,21.27
2022-09-28T08:05:10.044Z,18.13
2022-09-28T08:07:38.370Z,223.68
2022-09-28T08:10:09.495Z,24.13
2022-09-28T08:12:59.219Z,7.72
2022-09-28T08:16:02.917Z,9.57
2022-09-28T08:18:39.846Z,5.95
2022-09-28T08:21:26.054Z,6.10
2022-09-28T08:23:53.748Z,11.98
2022-09-28T08:26:21.759Z,7.55
2022-09-28T08:28:50.297Z,6.82
2022-09-28T08:31:44.013Z,5.50
2022-09-28T08:34:23.654Z,6.20
2022-09-28T08:37:13.942Z,7.50
2022-09-28T08:39:59.742Z,7.50
2022-09-28T08:43:01.941Z,6.53
2022-09-28T08:45:48.511Z,7.75
2022-09-28T08:48:52.382Z,7.10
2022-09-28T08:52:03.484Z,5.85
2022-09-28T08:54:56.776Z,7.05
2022-09-28T08:57:41.962Z,3.92
2022-09-28T09:00:21.221Z,10.02
2022-09-28T09:02:49.514Z,5.35
2022-09-28T09:05:25.784Z,6.18
2022-09-28T09:08:29.974Z,7.93
2022-09-28T09:11:22.474Z,5.32
2022-09-28T09:14:04.946Z,4.07
2022-09-28T09:16:47.737Z,5.60
2022-09-28T09:20:00.050Z,4.78
2022-09-28T09:22:57.516Z,4.65
2022-09-28T09:25:38.650Z,4.20
2022-09-28T09:28:32.736Z,4.47
2022-09-28T09:31:30.045Z,5.75
2022-09-28T09:34:18.019Z,4.95
2022-09-28T09:37:10.750Z,5.15
2022-09-28T09:40:27.385Z,6.32
2022-09-28T09:43:39.918Z,3.90
2022-09-28T09:46:37.806Z,4.65
2022-09-28T09:49:55.623Z,6.78
2022-09-28T09:55:15.211Z,7.57
2022-09-28T09:58:04.493Z,4.50
2022-09-28T10:00:39.364Z,4.43
2022-09-28T10:03:26.701Z,4.43
2022-09-28T10:06:05.697Z,3.65
2022-09-28T10:08:39.768Z,5.05
2022-09-28T10:11:31.069Z,5.78
2022-09-28T10:16:40.126Z,5.00
2022-09-28T10:19:14.680Z,4.15
2022-09-28T10:22:04.801Z,6.03
2022-09-28T10:24:38.624Z,5.90
2022-09-28T10:27:15.623Z,6.15
2022-09-28T10:29:50.814Z,6.90
2022-09-28T10:32:24.402Z,3.95
2022-09-28T10:35:14.979Z,4.07
2022-09-28T10:38:03.342Z,3.75
2022-09-28T10:40:59.249Z,4.47
2022-09-28T10:44:06.840Z,4.53
2022-09-28T10:46:45.229Z,5.88
2022-09-28T10:49:18.607Z,5.28
2022-09-28T10:51:56.157Z,6.55
2022-09-28T10:54:29.758Z,4.78
2022-09-28T10:57:00.273Z,5.80
2022-09-28T10:59:42.628Z,6.72
2022-09-28T11:02:37.496Z,8.00
2022-09-28T11:05:21.805Z,5.97
2022-09-28T11:07:52.390Z,24.92
2022-09-28T11:10:29.793Z,64.93
2022-09-28T11:13:03.218Z,4.50
2022-09-28T11:15:34.456Z,4.57
2022-09-28T11:18:29.522Z,8.98
2022-09-28T11:21:14.708Z,4.28
2022-09-28T11:24:07.477Z,5.93
2022-09-28T11:26:48.397Z,4.32
2022-09-28T11:29:41.732Z,3.65
2022-09-28T11:32:23.764Z,4.32
2022-09-28T11:35:22.683Z,3.53
2022-09-28T11:38:09.008Z,5.40
2022-09-28T11:41:36.993Z,5.55
2022-09-28T11:44:41.339Z,6.20
2022-09-28T11:47:34.330Z,5.18
2022-09-28T11:50:24.114Z,4.15
2022-09-28T11:52:57.633Z,4.15
2022-09-28T11:55:31.174Z,5.55
2022-09-28T11:58:37.758Z,6.78
2022-09-28T12:01:18.881Z,5.00
2022-09-28T12:04:24.087Z,3.80
2022-09-28T12:07:09.579Z,3.33
2022-09-28T12:09:52.394Z,6.85
2022-09-28T12:12:43.733Z,2.75
2022-09-28T12:15:26.762Z,4.07
2022-09-28T12:18:03.760Z,3.80
2022-09-28T12:20:35.648Z,2.65
2022-09-28T12:23:09.876Z,3.28
2022-09-28T12:25:46.247Z,5.60
2022-09-28T12:28:39.161Z,4.25
2022-09-28T12:31:41.540Z,2.78
2022-09-28T12:34:09.961Z,4.28
2022-09-28T12:37:05.542Z,19.83
2022-09-28T12:39:57.719Z,6.75
2022-09-28T12:42:44.360Z,4.80
2022-09-28T12:45:23.610Z,4.63
2022-09-28T12:48:22.809Z,3.35
2022-09-28T12:51:09.595Z,4.35
2022-09-28T12:54:19.496Z,2.83
2022-09-28T12:57:13.706Z,2.53
2022-09-28T13:00:05.066Z,4.82
2022-09-28T13:05:56.842Z,3.15
2022-09-28T13:08:42.127Z,2.08
2022-09-28T13:11:26.385Z,4.00
2022-09-28T13:14:05.989Z,4.13
2022-09-28T13:16:47.269Z,2.50
2022-09-28T13:21:49.938Z,3.30
2022-09-28T13:24:32.720Z,3.85
2022-09-28T13:27:10.438Z,3.00
2022-09-28T13:32:12.961Z,7.75
2022-09-28T13:34:40.578Z,4.20
2022-09-28T13:37:17.188Z,2.83
2022-09-28T13:39:44.858Z,1.30
2022-09-28T13:42:23.416Z,2.60
2022-09-28T13:44:51.000Z,4.50
2022-09-28T13:47:56.150Z,3.55
2022-09-28T13:50:23.610Z,1.65
2022-09-28T13:53:29.941Z,3.22
2022-09-28T13:56:16.248Z,2.63
2022-09-28T13:58:56.456Z,4.13
2022-09-28T14:01:36.298Z,4.10
2022-09-28T14:04:20.520Z,4.85
2022-09-28T14:06:57.546Z,3.75
2022-09-28T14:09:40.143Z,4.20
2022-09-28T14:12:36.698Z,1.98
2022-09-28T14:15:30.400Z,4.10
2022-09-28T14:17:57.894Z,1.63
2022-09-28T14:20:27.237Z,2.78
2022-09-28T14:23:34.634Z,2.40
2022-09-28T14:26:20.764Z,4.70
2022-09-28T14:29:22.756Z,29.05
2022-09-28T14:31:50.402Z,3.00
2022-09-28T14:34:29.830Z,1.42
2022-09-28T14:37:15.953Z,3.00
2022-09-28T14:40:04.102Z,1.48
2022-09-28T14:42:32.418Z,3.00
2022-09-28T14:45:06.199Z,2.80
2022-09-28T14:47:41.078Z,2.88
2022-09-28T14:50:27.724Z,3.88
2022-09-28T14:53:06.785Z,2.55
2022-09-28T14:55:50.224Z,3.63
2022-09-28T14:58:22.490Z,3.95
2022-09-28T15:00:54.610Z,6.63
2022-09-28T15:03:24.100Z,2.47
2022-09-28T15:05:52.456Z,7.43
2022-09-28T15:08:21.457Z,2.33
2022-09-28T15:10:50.980Z,4.03
2022-09-28T15:13:25.740Z,4.75
2022-09-28T15:16:10.024Z,2.72
2022-09-28T15:19:10.457Z,2.80
2022-09-28T15:21:41.141Z,3.85
2022-09-28T15:24:27.593Z,4.32
2022-09-28T15:26:56.659Z,4.43
2022-09-28T15:29:27.190Z,3.72
2022-09-28T15:31:54.899Z,4.25
2022-09-28T15:34:47.006Z,2.45
2022-09-28T15:37:17.250Z,3.67
2022-09-28T15:39:48.244Z,0.60
2022-09-28T15:45:01.235Z,3.08
2022-09-28T15:47:31.862Z,3.92
2022-09-28T15:50:00.691Z,2.78
2022-09-28T15:52:44.930Z,3.10
2022-09-28T15:55:25.671Z,3.67
2022-09-28T15:58:15.764Z,2.60
2022-09-28T16:00:45.191Z,2.92
2022-09-28T16:03:15.900Z,5.28
2022-09-28T16:05:49.287Z,2.85
2022-09-28T16:08:36.316Z,3.58
2022-09-28T16:11:19.406Z,1.35
2022-09-28T16:14:02.078Z,1.88
2022-09-28T16:16:35.305Z,1.88
2022-09-28T16:19:03.818Z,7.15
2022-09-28T16:21:43.737Z,2.75
2022-09-28T16:24:41.677Z,2.40
2022-09-28T16:27:23.397Z,3.05
2022-09-28T16:30:21.680Z,2.25
2022-09-28T16:32:57.262Z,5.20
2022-09-28T16:35:42.891Z,1.35
2022-09-28T16:38:14.362Z,2.38
2022-09-28T16:40:50.050Z,1.95
2022-09-28T16:43:24.908Z,1.27
2022-09-28T16:46:09.230Z,3.28
2022-09-28T16:48:48.540Z,3.10
2022-09-28T16:51:22.046Z,4.40
2022-09-28T16:54:08.286Z,5.13
2022-09-28T16:56:36.605Z,2.22
2022-09-28T16:59:04.572Z,1.08
2022-09-28T17:01:32.975Z,2.63
2022-09-28T17:04:00.648Z,2.65
2022-09-28T17:06:28.294Z,2.30
2022-09-28T17:08:56.691Z,2.78
2022-09-28T17:11:25.210Z,2.28
2022-09-28T17:13:59.111Z,3.28
2022-09-28T17:19:21.721Z,2.22
2022-09-28T17:21:50.524Z,4.68
2022-09-28T17:24:19.306Z,5.68
2022-09-28T17:26:49.915Z,2.72
2022-09-28T17:29:18.578Z,4.55
2022-09-28T17:31:47.038Z,4.72
2022-09-28T17:34:19.519Z,4.28
2022-09-28T17:36:47.517Z,4.90
2022-09-28T17:39:17.675Z,3.67
2022-09-28T17:41:45.945Z,2.83
2022-09-28T17:44:16.621Z,2.33
2022-09-28T17:46:48.570Z,4.05
2022-09-28T17:49:17.045Z,4.70
2022-09-28T17:51:44.768Z,2.83
2022-09-28T17:54:13.649Z,3.95
2022-09-28T17:56:42.653Z,5.20
2022-09-28T17:59:13.795Z,2.47
2022-09-28T18:01:41.438Z,3.83
2022-09-28T18:04:23.092Z,5.53
2022-09-28T18:06:55.424Z,6.78
2022-09-28T18:09:25.316Z,2.92
2022-09-28T18:12:00.882Z,3.97
2022-09-28T18:14:28.860Z,8.63
2022-09-28T18:16:56.746Z,5.85
2022-09-28T18:19:27.460Z,10.85
2022-09-28T18:21:59.010Z,4.32
2022-09-28T18:24:26.666Z,4.20
2022-09-28T18:26:54.245Z,6.40
2022-09-28T18:29:22.234Z,3.90
2022-09-28T18:31:50.099Z,5.95
2022-09-28T18:34:17.861Z,6.78
2022-09-28T18:36:45.558Z,6.50
2022-09-28T18:39:13.237Z,4.38
2022-09-28T18:41:42.093Z,7.82
2022-09-28T18:44:10.325Z,4.85
2022-09-28T18:46:38.042Z,6.60
2022-09-28T18:49:05.911Z,8.32
2022-09-28T18:51:33.577Z,9.88
2022-09-28T18:54:07.054Z,4.88
2022-09-28T18:56:37.337Z,7.50
2022-09-28T18:59:11.266Z,5.90
2022-09-28T19:01:42.003Z,6.95
2022-09-28T19:04:11.032Z,5.80
2022-09-28T19:06:40.857Z,8.63
2022-09-28T19:09:09.540Z,7.28
2022-09-28T19:11:37.226Z,6.13
2022-09-28T19:14:04.898Z,6.50
2022-09-28T19:16:35.526Z,6.95
2022-09-28T19:19:03.504Z,5.95
2022-09-28T19:21:31.683Z,7.90
2022-09-28T19:24:04.088Z,7.97
2022-09-28T19:26:32.948Z,9.48
2022-09-28T19:29:01.134Z,9.35
2022-09-28T19:31:30.898Z,9.05
2022-09-28T19:33:58.774Z,6.95
2022-09-28T19:36:28.505Z,6.78
2022-09-28T19:38:57.949Z,7.07
2022-09-28T19:41:49.419Z,7.82
2022-09-28T19:44:25.697Z,7.57
2022-09-28T19:46:56.053Z,10.00
2022-09-28T19:49:25.289Z,9.20
2022-09-28T19:52:14.263Z,11.07
2022-09-28T19:54:54.329Z,10.02
2022-09-28T19:57:24.746Z,7.95
2022-09-28T19:59:54.967Z,5.28
2022-09-28T20:02:24.300Z,7.10
2022-09-28T20:04:51.872Z,6.50
2022-09-28T20:07:19.375Z,6.43
2022-09-28T20:09:46.884Z,6.80
2022-09-28T20:12:14.570Z,6.57
2022-09-28T20:14:42.057Z,5.25
2022-09-28T20:17:10.614Z,6.47
2022-09-28T20:19:38.413Z,7.38
2022-09-28T20:22:06.046Z,5.43
2022-09-28T20:24:33.900Z,9.55
2022-09-28T20:27:01.725Z,7.18
2022-09-28T20:29:33.795Z,10.15
2022-09-28T20:32:03.918Z,8.63
2022-09-28T20:34:33.756Z,7.53
2022-09-28T20:37:01.634Z,5.45
2022-09-28T20:39:29.630Z,6.13
2022-09-28T20:41:57.499Z,5.78
2022-09-28T20:44:25.074Z,8.25
2022-09-28T20:46:53.799Z,13.02
2022-09-28T20:49:22.181Z,5.70
2022-09-28T20:51:49.774Z,4.10
2022-09-28T20:54:17.498Z,4.20
2022-09-28T20:56:47.181Z,6.70
2022-09-28T20:59:14.865Z,7.20
2022-09-28T21:01:42.936Z,5.57
2022-09-28T21:04:10.910Z,6.75
2022-09-28T21:06:41.166Z,5.50
2022-09-28T21:09:10.501Z,6.93
2022-09-28T21:11:38.900Z,5.28
2022-09-28T21:14:07.058Z,5.70
2022-09-28T21:16:35.568Z,7.20
2022-09-28T21:19:03.650Z,4.85
2022-09-28T21:21:31.173Z,6.57
2022-09-28T21:23:59.450Z,4.88
2022-09-28T21:26:29.173Z,5.53
2022-09-28T21:28:59.265Z,6.15
2022-09-28T21:31:31.452Z,5.60
2022-09-28T21:33:59.465Z,4.97
2022-09-28T21:36:26.942Z,5.28
2022-09-28T21:38:55.570Z,4.78
2022-09-28T21:41:24.221Z,5.75
2022-09-28T21:43:52.624Z,10.13
2022-09-28T21:46:20.485Z,5.53
2022-09-28T21:48:53.500Z,6.75
2022-09-28T21:51:21.760Z,7.45
2022-09-28T21:53:49.407Z,4.68
2022-09-28T21:56:17.579Z,6.38
2022-09-28T21:58:45.084Z,5.55
2022-09-28T22:01:16.567Z,6.55
2022-09-28T22:06:13.043Z,4.18
2022-09-28T22:08:40.602Z,4.45
2022-09-28T22:11:11.120Z,8.32
2022-09-28T22:13:56.468Z,4.90
2022-09-28T22:16:26.496Z,5.40
2022-09-28T22:18:54.081Z,7.03
2022-09-28T22:21:23.157Z,7.43
2022-09-28T22:23:51.033Z,5.60
2022-09-28T22:26:25.645Z,8.70
2022-09-28T22:28:55.942Z,8.30
2022-09-28T22:31:26.802Z,8.30
2022-09-28T22:33:54.880Z,6.82
2022-09-28T22:36:22.668Z,7.72
2022-09-28T22:38:50.215Z,6.20
2022-09-28T22:41:20.958Z,6.68
2022-09-28T22:43:49.881Z,7.37
2022-09-28T22:46:22.495Z,8.93
2022-09-28T22:48:52.671Z,7.50
2022-09-28T22:51:20.849Z,7.18
2022-09-28T22:53:48.568Z,6.95
2022-09-28T22:56:19.078Z,6.53
2022-09-28T22:58:47.408Z,6.97
2022-09-28T23:01:19.303Z,7.05
2022-09-28T23:03:47.856Z,6.47
2022-09-28T23:06:18.094Z,6.85
2022-09-28T23:08:47.360Z,7.03
2022-09-28T23:11:15.541Z,6.07
2022-09-28T23:13:43.523Z,5.82
2022-09-28T23:16:12.665Z,7.30
2022-09-28T23:18:41.135Z,8.27
2022-09-28T23:21:15.434Z,8.23
2022-09-28T23:23:43.914Z,9.00
2022-09-28T23:26:13.888Z,7.70
2022-09-28T23:28:42.003Z,8.23
2022-09-28T23:31:17.541Z,6.80
2022-09-28T23:33:45.501Z,9.05
2022-09-28T23:36:13.533Z,8.15
2022-09-28T23:38:41.535Z,7.97
2022-09-28T23:41:09.742Z,7.65
2022-09-28T23:43:37.287Z,7.50
2022-09-28T23:46:05.368Z,8.25
2022-09-28T23:48:33.578Z,8.15
2022-09-28T23:51:02.102Z,9.63
2022-09-28T23:53:32.209Z,11.02
2022-09-28T23:56:00.415Z,8.85
2022-09-28T23:58:28.274Z,10.85
